Sheffield Lake, Ohio
Current Conditions -  °F | °C
As of 7:31 AM on Monday 24 Nov 2014 (Local Time) from KLPR Reporting Station
Light Rain Light Rain  
Wind Chill: 59°   Ceiling: 3600
Heat Index: 59°   Visibility: 10mi
Dew Point: 52°   Wind: 22mph
Humidity: 78%   Direction: 220°SW
Pressure: 29.27"   Gusts: 35mph
Location:  41.49°N, 82.09°W
Report Text: KLPR 241231Z AUTO 22019G30KT 10SM -RA FEW024 BKN036 OVC055 15/11 A2927 RMK AO2 PK WND 23030/1226 RAB26 P0000 T01500111 TSNO $
Loading
Personal Weather Stations






























Interactive Weather Map New forecast layout! Learn more

10-Day Weather Forecast

Advertisements
Track Severe Weather on mobile